createdAt,value
2022-09-13T00:02:18.215Z,101008.94
2022-09-13T00:07:22.958Z,101004.50
2022-09-13T00:12:26.127Z,100999.19
2022-09-13T00:17:30.761Z,101005.41
2022-09-13T00:22:34.142Z,100987.63
2022-09-13T00:27:37.917Z,100976.97
2022-09-13T00:32:42.361Z,100964.50
2022-09-13T00:37:46.189Z,100967.19
2022-09-13T00:42:49.431Z,100974.31
2022-09-13T00:47:58.473Z,100971.66
2022-09-13T00:53:06.653Z,100970.75
2022-09-13T00:58:14.621Z,100970.69
2022-09-13T01:03:23.037Z,100986.72
2022-09-13T01:08:26.416Z,100991.19
2022-09-13T01:13:33.231Z,100982.31
2022-09-13T01:18:37.920Z,100983.19
2022-09-13T01:23:57.894Z,100992.06
2022-09-13T01:29:26.524Z,100995.63
2022-09-13T01:34:40.419Z,100990.28
2022-09-13T01:39:59.976Z,100969.88
2022-09-13T01:45:14.885Z,100958.34
2022-09-13T01:50:24.870Z,100961.00
2022-09-13T01:55:35.695Z,100963.63
2022-09-13T02:00:46.655Z,100952.09
2022-09-13T02:05:56.411Z,100939.63
2022-09-13T02:11:05.458Z,100957.38
2022-09-13T02:16:14.662Z,100966.19
2022-09-13T02:21:23.743Z,100967.94
2022-09-13T02:26:29.871Z,100967.06
2022-09-13T02:31:40.681Z,100969.75
2022-09-13T02:36:47.375Z,100970.63
2022-09-13T02:41:55.445Z,100965.31
2022-09-13T02:47:12.207Z,100974.25
2022-09-13T02:52:23.323Z,100985.81
2022-09-13T02:57:33.661Z,100978.72
2022-09-13T03:02:40.132Z,100968.06
2022-09-13T03:07:44.588Z,100976.97
2022-09-13T03:13:23.116Z,100970.75
2022-09-13T03:18:41.280Z,100974.28
2022-09-13T03:23:58.676Z,100970.75
2022-09-13T03:29:12.448Z,100969.84
2022-09-13T03:34:23.731Z,100983.19
2022-09-13T03:39:41.695Z,100965.41
2022-09-13T03:44:48.239Z,100968.06
2022-09-13T03:49:52.923Z,100983.19
2022-09-13T03:54:59.182Z,100982.28
2022-09-13T04:00:02.471Z,100979.59
2022-09-13T04:05:15.045Z,100982.28
2022-09-13T04:10:19.529Z,100992.03
2022-09-13T04:15:23.061Z,100993.84
2022-09-13T04:20:26.408Z,101000.03
2022-09-13T04:25:30.784Z,101007.13
2022-09-13T04:30:33.794Z,101006.22
2022-09-13T04:35:36.931Z,101006.19
2022-09-13T04:40:44.614Z,100991.97
2022-09-13T04:45:47.746Z,101010.63
2022-09-13T04:50:50.755Z,101005.28
2022-09-13T04:55:55.141Z,101014.16
2022-09-13T05:01:02.533Z,101015.03
2022-09-13T05:06:06.473Z,101014.16
2022-09-13T05:11:11.623Z,101013.28
2022-09-13T05:16:14.680Z,101018.59
2022-09-13T05:21:18.650Z,101025.66
2022-09-13T05:26:26.019Z,101019.47
2022-09-13T05:31:31.972Z,101018.53
2022-09-13T05:36:35.723Z,101020.34
2022-09-13T05:41:43.149Z,101026.53
2022-09-13T05:46:48.826Z,101024.75
2022-09-13T05:51:51.746Z,101023.88
2022-09-13T05:56:57.652Z,101029.22
2022-09-13T06:02:00.646Z,101030.13
2022-09-13T06:07:03.636Z,101030.19
2022-09-13T06:12:08.177Z,101031.13
2022-09-13T06:17:11.330Z,101040.88
2022-09-13T06:22:14.251Z,101041.78
2022-09-13T06:27:19.626Z,101041.78
2022-09-13T06:32:22.875Z,101024.03
2022-09-13T06:37:26.523Z,101025.81
2022-09-13T06:42:31.115Z,101027.59
2022-09-13T06:47:39.658Z,101024.06
2022-09-13T06:52:43.292Z,101029.41
2022-09-13T06:57:48.876Z,101029.38
2022-09-13T07:02:52.822Z,101022.25
2022-09-13T07:07:55.855Z,101026.72
2022-09-13T07:13:00.308Z,101030.25
2022-09-13T07:18:03.510Z,101032.94
2022-09-13T07:23:06.547Z,101044.50
2022-09-13T07:28:11.209Z,101045.34
2022-09-13T07:33:14.308Z,101034.69
2022-09-13T07:38:17.318Z,101047.09
2022-09-13T07:43:21.686Z,101046.13
2022-09-13T07:48:24.951Z,101049.59
2022-09-13T07:53:27.883Z,101060.28
2022-09-13T07:58:32.737Z,101047.72
2022-09-13T08:03:42.768Z,101056.53
2022-09-13T08:08:45.968Z,101054.69
2022-09-13T08:13:51.698Z,101058.16
2022-09-13T08:18:56.370Z,101062.47
2022-09-13T08:24:00.784Z,101054.28
2022-09-13T08:29:09.969Z,101062.22
2022-09-13T08:34:14.734Z,101070.09
2022-09-13T08:39:18.851Z,101074.41
2022-09-13T08:44:29.629Z,101076.94
2022-09-13T08:49:36.829Z,101078.78
2022-09-13T08:54:42.833Z,101092.88
2022-09-13T08:59:55.640Z,101073.16
2022-09-13T09:05:06.932Z,101070.09
2022-09-13T09:10:17.511Z,101074.28
2022-09-13T09:15:27.947Z,101075.34
2022-09-13T09:20:33.752Z,101067.78
2022-09-13T09:25:36.965Z,101073.41
2022-09-13T09:30:52.793Z,101069.91
2022-09-13T09:36:04.907Z,101074.91
2022-09-13T09:41:14.545Z,101059.09
2022-09-13T09:46:27.390Z,101066.69
2022-09-13T09:51:31.557Z,101068.63
2022-09-13T09:56:36.846Z,101071.09
2022-09-13T10:01:48.332Z,101069.94
2022-09-13T10:06:52.915Z,101063.44
2022-09-13T10:11:57.284Z,101061.25
2022-09-13T10:17:08.042Z,101047.47
2022-09-13T10:22:13.459Z,101045.13
2022-09-13T10:27:34.524Z,101037.88
2022-09-13T10:32:39.100Z,101027.81
2022-09-13T10:37:47.213Z,101037.28
2022-09-13T10:42:56.417Z,101042.88
2022-09-13T10:48:07.196Z,101018.44
2022-09-13T10:53:34.452Z,101031.25
2022-09-13T10:58:39.893Z,101026.84
2022-09-13T11:04:03.803Z,101034.16
2022-09-13T11:09:13.702Z,101032.69
2022-09-13T11:14:38.204Z,101019.84
2022-09-13T11:20:22.976Z,101016.94
2022-09-13T11:25:44.615Z,101003.84
2022-09-13T11:31:02.135Z,101012.03
2022-09-13T11:36:29.824Z,101009.81
2022-09-13T11:41:43.778Z,101021.41
2022-09-13T11:46:53.947Z,101009.31
2022-09-13T11:52:09.748Z,101008.28
2022-09-13T11:57:19.812Z,101008.56
2022-09-13T12:02:32.514Z,101007.00
2022-09-13T12:07:40.161Z,101018.59
2022-09-13T12:12:49.532Z,101014.56
2022-09-13T12:17:58.295Z,101012.03
2022-09-13T12:23:04.496Z,101016.13
2022-09-13T12:28:17.914Z,101008.69
2022-09-13T12:33:21.387Z,100995.03
2022-09-13T12:38:41.420Z,100987.34
2022-09-13T12:44:33.743Z,100999.91
2022-09-13T12:49:58.794Z,101003.03
2022-09-13T12:55:47.409Z,100985.91
2022-09-13T13:01:12.715Z,100993.13
2022-09-13T13:06:27.362Z,100987.09
2022-09-13T13:11:42.591Z,100992.78
2022-09-13T13:16:48.531Z,100992.25
2022-09-13T13:21:51.611Z,100986.81
2022-09-13T13:26:55.923Z,100993.59
2022-09-13T13:32:14.839Z,101000.81
2022-09-13T13:37:36.401Z,101007.75
2022-09-13T13:42:45.214Z,101004.84
2022-09-13T13:48:15.629Z,100981.44
2022-09-13T13:53:23.721Z,100989.28
2022-09-13T13:58:32.979Z,100990.31
2022-09-13T14:04:25.785Z,100995.31
2022-09-13T14:09:38.944Z,100989.13
2022-09-13T14:15:01.716Z,100975.75
2022-09-13T14:20:12.050Z,100982.84
2022-09-13T14:25:23.842Z,100977.84
2022-09-13T14:30:32.010Z,100980.69
2022-09-13T14:35:37.994Z,100980.34
2022-09-13T14:40:41.529Z,100978.81
2022-09-13T14:45:48.053Z,100987.69
2022-09-13T14:50:58.416Z,100987.34
2022-09-13T14:56:07.051Z,100985.34
2022-09-13T15:01:16.302Z,100977.44
2022-09-13T15:06:26.633Z,100981.66
2022-09-13T15:11:33.233Z,100989.81
2022-09-13T15:16:36.631Z,100988.44
2022-09-13T15:21:41.004Z,100975.41
2022-09-13T15:26:43.960Z,100971.75
2022-09-13T15:31:47.042Z,100966.31
2022-09-13T15:37:11.495Z,100963.91
2022-09-13T15:42:15.191Z,100971.34
2022-09-13T15:47:20.251Z,100969.03
2022-09-13T15:52:24.633Z,100971.97
2022-09-13T15:57:30.021Z,100948.22
2022-09-13T16:02:35.849Z,100960.03
2022-09-13T16:07:41.003Z,100957.66
2022-09-13T16:12:44.014Z,100951.34
2022-09-13T16:17:47.730Z,100955.31
2022-09-13T16:22:52.131Z,100952.34
2022-09-13T16:27:55.344Z,100957.88
2022-09-13T16:32:58.945Z,100961.69
2022-09-13T16:38:03.292Z,100961.94
2022-09-13T16:43:06.216Z,100945.91
2022-09-13T16:48:12.930Z,100952.28
2022-09-13T16:53:17.329Z,100944.28
2022-09-13T16:58:20.550Z,100946.22
2022-09-13T17:03:23.661Z,100943.66
2022-09-13T17:08:28.772Z,100936.69
2022-09-13T17:13:31.883Z,100936.03
2022-09-13T17:18:39.771Z,100945.19
2022-09-13T17:23:44.255Z,100931.16
2022-09-13T17:28:52.644Z,100942.84
2022-09-13T17:33:55.844Z,100946.56
2022-09-13T17:39:00.913Z,100947.59
2022-09-13T17:44:06.378Z,100941.44
2022-09-13T17:49:12.671Z,100941.53
2022-09-13T17:54:17.025Z,100938.94
2022-09-13T17:59:21.907Z,100938.09
2022-09-13T18:04:24.997Z,100940.88
2022-09-13T18:09:29.439Z,100938.22
2022-09-13T18:14:32.875Z,100941.84
2022-09-13T18:19:45.896Z,100943.66
2022-09-13T18:24:50.992Z,100952.56
2022-09-13T18:29:54.119Z,100943.72
2022-09-13T18:34:57.328Z,100940.22
2022-09-13T18:40:01.975Z,100955.38
2022-09-13T18:45:05.713Z,100943.00
2022-09-13T18:50:17.944Z,100950.16
2022-09-13T18:55:25.433Z,100951.06
2022-09-13T19:00:32.784Z,100962.69
2022-09-13T19:05:39.505Z,100970.72
2022-09-13T19:10:45.509Z,100969.84
2022-09-13T19:15:49.317Z,100985.84
2022-09-13T19:20:53.797Z,100985.84
2022-09-13T19:26:04.240Z,100993.88
2022-09-13T19:31:09.329Z,100999.19
2022-09-13T19:36:15.106Z,101012.47
2022-09-13T19:41:23.752Z,101009.81
2022-09-13T19:46:28.588Z,100998.25
2022-09-13T19:51:33.280Z,101004.41
2022-09-13T19:56:40.556Z,101008.84
2022-09-13T20:01:46.158Z,101012.38
2022-09-13T20:06:50.760Z,101003.47
2022-09-13T20:12:00.576Z,101009.69
2022-09-13T20:17:04.270Z,101021.22
2022-09-13T20:22:09.912Z,101019.41
2022-09-13T20:27:14.545Z,101008.75
2022-09-13T20:32:17.465Z,101009.66
2022-09-13T20:37:22.527Z,101008.78
2022-09-13T20:42:27.077Z,101002.53
2022-09-13T20:47:30.061Z,100995.44
2022-09-13T20:52:33.411Z,100983.94
2022-09-13T20:57:41.241Z,100975.03
2022-09-13T21:02:44.596Z,100968.78
2022-09-13T21:08:05.031Z,100969.63
2022-09-13T21:13:11.177Z,100960.75
2022-09-13T21:18:14.120Z,100975.81
2022-09-13T21:23:17.227Z,100969.59
2022-09-13T21:28:21.609Z,100964.28
2022-09-13T21:33:24.781Z,100961.59
2022-09-13T21:38:29.463Z,100966.91
2022-09-13T21:43:35.144Z,100967.81
2022-09-13T21:48:38.039Z,100963.38
2022-09-13T21:53:41.022Z,100965.13
2022-09-13T21:58:49.705Z,100961.59
2022-09-13T22:03:54.023Z,100966.94
2022-09-13T22:08:59.499Z,100959.78
2022-09-13T22:14:03.996Z,100953.56
2022-09-13T22:19:11.027Z,100957.97
2022-09-13T22:24:16.518Z,100951.78
2022-09-13T22:29:22.153Z,100947.31
2022-09-13T22:34:26.627Z,100948.22
2022-09-13T22:39:29.647Z,100947.34
2022-09-13T22:44:34.445Z,100948.25
2022-09-13T22:49:39.623Z,100955.28
2022-09-13T22:54:43.504Z,100954.41
2022-09-13T22:59:47.938Z,100949.09
2022-09-13T23:04:51.062Z,100941.91
2022-09-13T23:09:54.090Z,100946.28
2022-09-13T23:14:58.917Z,100936.47
2022-09-13T23:20:05.934Z,100928.47
2022-09-13T23:25:15.804Z,100931.13
2022-09-13T23:30:23.733Z,100926.69
2022-09-13T23:35:33.442Z,100925.78
2022-09-13T23:40:37.070Z,100919.38
2022-09-13T23:45:45.824Z,100926.31
2022-09-13T23:50:49.014Z,100934.19
2022-09-13T23:55:52.078Z,100919.88
